sensor_id;sensor_type;location;lat;lon;timestamp;P1;durP1;ratioP1;P2;durP2;ratioP2
29206;SDS011;16247;50.840;4.382;2023-08-31T04:10:24;6.35;;;3.17;;
29206;SDS011;16247;50.840;4.382;2023-08-31T04:13:22;4.47;;;3.15;;
29206;SDS011;16247;50.840;4.382;2023-08-31T04:18:57;5.88;;;3.45;;
29206;SDS011;16247;50.840;4.382;2023-08-31T04:40:54;4.40;;;2.95;;
29206;SDS011;16247;50.840;4.382;2023-08-31T04:44:02;8.77;;;3.80;;
29206;SDS011;16247;50.840;4.382;2023-08-31T05:32:13;4.95;;;3.63;;
29206;SDS011;16247;50.840;4.382;2023-08-31T06:01:30;9.40;;;3.95;;
29206;SDS011;16247;50.840;4.382;2023-08-31T06:04:03;13.63;;;3.95;;
29206;SDS011;16247;50.840;4.382;2023-08-31T06:06:30;8.38;;;3.70;;
29206;SDS011;16247;50.840;4.382;2023-08-31T06:09:07;12.85;;;3.42;;
29206;SDS011;16247;50.840;4.382;2023-08-31T06:11:45;12.63;;;4.45;;
29206;SDS011;16247;50.840;4.382;2023-08-31T06:14:11;11.70;;;3.95;;
29206;SDS011;16247;50.840;4.382;2023-08-31T06:16:59;11.75;;;4.10;;
29206;SDS011;16247;50.840;4.382;2023-08-31T06:19:24;12.88;;;3.92;;
29206;SDS011;16247;50.840;4.382;2023-08-31T06:21:50;8.73;;;4.10;;
29206;SDS011;16247;50.840;4.382;2023-08-31T06:24:16;11.45;;;4.03;;
29206;SDS011;16247;50.840;4.382;2023-08-31T06:26:41;9.60;;;3.80;;
29206;SDS011;16247;50.840;4.382;2023-08-31T06:29:07;11.25;;;3.70;;
29206;SDS011;16247;50.840;4.382;2023-08-31T06:34:01;12.60;;;3.60;;
29206;SDS011;16247;50.840;4.382;2023-08-31T06:36:27;11.73;;;4.13;;
29206;SDS011;16247;50.840;4.382;2023-08-31T06:38:53;11.27;;;3.70;;
29206;SDS011;16247;50.840;4.382;2023-08-31T06:41:18;12.90;;;4.13;;
29206;SDS011;16247;50.840;4.382;2023-08-31T06:43:44;14.32;;;4.65;;
29206;SDS011;16247;50.840;4.382;2023-08-31T06:46:11;9.38;;;4.28;;
29206;SDS011;16247;50.840;4.382;2023-08-31T06:48:37;10.00;;;4.50;;
29206;SDS011;16247;50.840;4.382;2023-08-31T06:51:06;10.32;;;3.88;;
29206;SDS011;16247;50.840;4.382;2023-08-31T06:53:31;14.15;;;3.83;;
29206;SDS011;16247;50.840;4.382;2023-08-31T06:55:57;10.20;;;3.80;;
29206;SDS011;16247;50.840;4.382;2023-08-31T06:58:22;11.38;;;4.35;;
29206;SDS011;16247;50.840;4.382;2023-08-31T07:00:48;13.40;;;4.00;;
29206;SDS011;16247;50.840;4.382;2023-08-31T07:03:14;16.90;;;3.67;;
29206;SDS011;16247;50.840;4.382;2023-08-31T07:05:43;13.15;;;3.92;;
29206;SDS011;16247;50.840;4.382;2023-08-31T07:08:09;17.70;;;4.75;;
29206;SDS011;16247;50.840;4.382;2023-08-31T07:10:35;9.60;;;4.22;;
29206;SDS011;16247;50.840;4.382;2023-08-31T07:13:04;9.32;;;3.78;;
29206;SDS011;16247;50.840;4.382;2023-08-31T07:15:29;11.30;;;4.00;;
29206;SDS011;16247;50.840;4.382;2023-08-31T07:17:55;10.75;;;4.07;;
29206;SDS011;16247;50.840;4.382;2023-08-31T07:20:21;10.00;;;4.13;;
29206;SDS011;16247;50.840;4.382;2023-08-31T07:22:47;13.60;;;4.10;;
29206;SDS011;16247;50.840;4.382;2023-08-31T07:25:16;13.82;;;4.32;;
29206;SDS011;16247;50.840;4.382;2023-08-31T07:27:43;10.73;;;4.20;;
29206;SDS011;16247;50.840;4.382;2023-08-31T07:30:09;15.20;;;4.10;;
29206;SDS011;16247;50.840;4.382;2023-08-31T07:32:35;15.10;;;4.70;;
29206;SDS011;16247;50.840;4.382;2023-08-31T07:35:01;14.02;;;4.40;;
29206;SDS011;16247;50.840;4.382;2023-08-31T07:37:29;12.80;;;4.47;;
29206;SDS011;16247;50.840;4.382;2023-08-31T07:39:57;13.73;;;4.70;;
29206;SDS011;16247;50.840;4.382;2023-08-31T07:42:25;10.60;;;4.25;;
29206;SDS011;16247;50.840;4.382;2023-08-31T07:44:51;11.30;;;3.53;;
29206;SDS011;16247;50.840;4.382;2023-08-31T07:47:18;13.40;;;4.97;;
29206;SDS011;16247;50.840;4.382;2023-08-31T07:49:44;11.25;;;5.07;;
29206;SDS011;16247;50.840;4.382;2023-08-31T07:52:10;14.70;;;4.72;;
29206;SDS011;16247;50.840;4.382;2023-08-31T07:54:36;11.18;;;4.20;;
29206;SDS011;16247;50.840;4.382;2023-08-31T07:57:01;8.43;;;4.38;;
29206;SDS011;16247;50.840;4.382;2023-08-31T07:59:27;8.35;;;4.30;;
29206;SDS011;16247;50.840;4.382;2023-08-31T08:01:53;8.80;;;4.68;;
29206;SDS011;16247;50.840;4.382;2023-08-31T08:04:20;15.25;;;6.05;;
29206;SDS011;16247;50.840;4.382;2023-08-31T08:06:48;13.68;;;4.93;;
29206;SDS011;16247;50.840;4.382;2023-08-31T08:09:14;13.70;;;4.97;;
29206;SDS011;16247;50.840;4.382;2023-08-31T08:11:40;13.07;;;4.85;;
29206;SDS011;16247;50.840;4.382;2023-08-31T08:14:07;9.02;;;3.90;;
29206;SDS011;16247;50.840;4.382;2023-08-31T08:16:32;13.32;;;5.07;;
29206;SDS011;16247;50.840;4.382;2023-08-31T08:19:01;12.63;;;4.50;;
29206;SDS011;16247;50.840;4.382;2023-08-31T08:21:27;17.05;;;4.65;;
29206;SDS011;16247;50.840;4.382;2023-08-31T08:23:53;14.50;;;5.13;;
29206;SDS011;16247;50.840;4.382;2023-08-31T08:26:18;14.10;;;4.90;;
29206;SDS011;16247;50.840;4.382;2023-08-31T08:28:44;7.32;;;4.13;;
29206;SDS011;16247;50.840;4.382;2023-08-31T08:31:11;9.25;;;4.03;;
29206;SDS011;16247;50.840;4.382;2023-08-31T08:33:36;12.93;;;4.80;;
29206;SDS011;16247;50.840;4.382;2023-08-31T08:36:02;11.55;;;4.10;;
29206;SDS011;16247;50.840;4.382;2023-08-31T08:38:28;9.00;;;4.05;;
29206;SDS011;16247;50.840;4.382;2023-08-31T08:40:54;11.75;;;4.15;;
29206;SDS011;16247;50.840;4.382;2023-08-31T08:43:24;8.90;;;3.58;;
29206;SDS011;16247;50.840;4.382;2023-08-31T08:45:53;13.93;;;4.43;;
29206;SDS011;16247;50.840;4.382;2023-08-31T08:48:20;12.82;;;4.15;;
29206;SDS011;16247;50.840;4.382;2023-08-31T08:50:46;11.18;;;4.18;;
29206;SDS011;16247;50.840;4.382;2023-08-31T08:53:13;11.80;;;3.67;;
29206;SDS011;16247;50.840;4.382;2023-08-31T08:55:40;10.65;;;4.53;;
29206;SDS011;16247;50.840;4.382;2023-08-31T08:58:06;11.60;;;4.22;;
29206;SDS011;16247;50.840;4.382;2023-08-31T09:00:32;9.82;;;3.40;;
29206;SDS011;16247;50.840;4.382;2023-08-31T09:02:59;9.02;;;3.80;;
29206;SDS011;16247;50.840;4.382;2023-08-31T09:05:30;11.90;;;4.78;;
29206;SDS011;16247;50.840;4.382;2023-08-31T09:08:06;7.47;;;3.20;;
29206;SDS011;16247;50.840;4.382;2023-08-31T09:10:44;8.43;;;3.72;;
29206;SDS011;16247;50.840;4.382;2023-08-31T09:13:11;14.18;;;3.80;;
29206;SDS011;16247;50.840;4.382;2023-08-31T09:15:41;9.03;;;4.00;;
29206;SDS011;16247;50.840;4.382;2023-08-31T09:20:51;10.50;;;4.30;;
29206;SDS011;16247;50.840;4.382;2023-08-31T09:23:17;9.32;;;3.63;;
29206;SDS011;16247;50.840;4.382;2023-08-31T09:25:51;10.30;;;3.85;;
29206;SDS011;16247;50.840;4.382;2023-08-31T09:28:26;7.60;;;4.38;;
29206;SDS011;16247;50.840;4.382;2023-08-31T09:30:53;11.82;;;3.30;;
29206;SDS011;16247;50.840;4.382;2023-08-31T09:33:27;9.07;;;3.40;;
29206;SDS011;16247;50.840;4.382;2023-08-31T09:35:57;9.05;;;3.47;;
29206;SDS011;16247;50.840;4.382;2023-08-31T09:38:26;7.85;;;3.58;;
29206;SDS011;16247;50.840;4.382;2023-08-31T09:40:52;10.98;;;4.15;;
29206;SDS011;16247;50.840;4.382;2023-08-31T09:43:29;10.60;;;3.92;;
29206;SDS011;16247;50.840;4.382;2023-08-31T09:45:54;12.43;;;3.97;;
29206;SDS011;16247;50.840;4.382;2023-08-31T09:48:20;10.73;;;2.92;;
29206;SDS011;16247;50.840;4.382;2023-08-31T09:50:48;8.98;;;3.25;;
29206;SDS011;16247;50.840;4.382;2023-08-31T09:53:18;8.75;;;4.38;;
29206;SDS011;16247;50.840;4.382;2023-08-31T09:55:46;11.63;;;4.63;;
29206;SDS011;16247;50.840;4.382;2023-08-31T09:58:13;12.38;;;3.80;;
29206;SDS011;16247;50.840;4.382;2023-08-31T10:00:44;7.95;;;3.40;;
29206;SDS011;16247;50.840;4.382;2023-08-31T10:03:11;9.07;;;3.40;;
29206;SDS011;16247;50.840;4.382;2023-08-31T10:05:40;13.45;;;3.60;;
29206;SDS011;16247;50.840;4.382;2023-08-31T10:08:08;5.13;;;2.95;;
29206;SDS011;16247;50.840;4.382;2023-08-31T10:10:33;6.65;;;3.38;;
29206;SDS011;16247;50.840;4.382;2023-08-31T10:13:01;9.35;;;3.13;;
29206;SDS011;16247;50.840;4.382;2023-08-31T10:15:31;7.75;;;3.00;;
29206;SDS011;16247;50.840;4.382;2023-08-31T10:18:02;10.52;;;2.92;;
29206;SDS011;16247;50.840;4.382;2023-08-31T10:20:29;6.35;;;2.90;;
29206;SDS011;16247;50.840;4.382;2023-08-31T10:23:01;6.53;;;2.80;;
29206;SDS011;16247;50.840;4.382;2023-08-31T10:28:19;7.93;;;3.00;;
29206;SDS011;16247;50.840;4.382;2023-08-31T10:31:04;7.20;;;2.40;;
29206;SDS011;16247;50.840;4.382;2023-08-31T10:36:41;6.53;;;2.67;;
29206;SDS011;16247;50.840;4.382;2023-08-31T10:39:23;10.32;;;3.05;;
29206;SDS011;16247;50.840;4.382;2023-08-31T10:41:58;16.98;;;3.65;;
29206;SDS011;16247;50.840;4.382;2023-08-31T10:44:30;8.07;;;2.97;;
29206;SDS011;16247;50.840;4.382;2023-08-31T10:46:58;9.35;;;2.53;;
29206;SDS011;16247;50.840;4.382;2023-08-31T10:49:25;10.07;;;3.17;;
29206;SDS011;16247;50.840;4.382;2023-08-31T10:52:00;6.55;;;2.67;;
29206;SDS011;16247;50.840;4.382;2023-08-31T10:54:43;11.38;;;2.63;;
29206;SDS011;16247;50.840;4.382;2023-08-31T10:57:11;7.15;;;2.35;;
29206;SDS011;16247;50.840;4.382;2023-08-31T10:59:51;6.28;;;2.75;;
29206;SDS011;16247;50.840;4.382;2023-08-31T11:07:38;10.00;;;2.92;;
29206;SDS011;16247;50.840;4.382;2023-08-31T11:10:19;5.95;;;2.33;;
29206;SDS011;16247;50.840;4.382;2023-08-31T11:12:51;9.15;;;2.33;;
29206;SDS011;16247;50.840;4.382;2023-08-31T11:17:51;10.30;;;2.90;;
29206;SDS011;16247;50.840;4.382;2023-08-31T11:22:51;8.07;;;2.72;;
29206;SDS011;16247;50.840;4.382;2023-08-31T11:27:56;8.45;;;2.72;;
29206;SDS011;16247;50.840;4.382;2023-08-31T11:30:25;9.88;;;2.47;;
29206;SDS011;16247;50.840;4.382;2023-08-31T11:32:53;8.23;;;2.40;;
29206;SDS011;16247;50.840;4.382;2023-08-31T11:35:20;11.45;;;2.00;;
29206;SDS011;16247;50.840;4.382;2023-08-31T11:37:51;11.35;;;2.08;;
29206;SDS011;16247;50.840;4.382;2023-08-31T11:40:25;9.30;;;2.72;;
29206;SDS011;16247;50.840;4.382;2023-08-31T11:42:52;6.15;;;1.92;;
29206;SDS011;16247;50.840;4.382;2023-08-31T11:45:19;7.53;;;2.05;;
29206;SDS011;16247;50.840;4.382;2023-08-31T11:47:46;7.97;;;2.03;;
29206;SDS011;16247;50.840;4.382;2023-08-31T11:50:13;4.43;;;1.95;;
29206;SDS011;16247;50.840;4.382;2023-08-31T11:55:10;4.18;;;1.80;;
29206;SDS011;16247;50.840;4.382;2023-08-31T11:57:38;3.42;;;1.42;;
29206;SDS011;16247;50.840;4.382;2023-08-31T12:00:07;7.85;;;2.03;;
29206;SDS011;16247;50.840;4.382;2023-08-31T12:02:37;7.90;;;1.88;;
29206;SDS011;16247;50.840;4.382;2023-08-31T12:05:04;7.50;;;2.25;;
29206;SDS011;16247;50.840;4.382;2023-08-31T12:07:30;5.45;;;2.70;;
29206;SDS011;16247;50.840;4.382;2023-08-31T12:10:03;7.78;;;2.20;;
29206;SDS011;16247;50.840;4.382;2023-08-31T12:12:30;7.18;;;1.73;;
29206;SDS011;16247;50.840;4.382;2023-08-31T12:14:58;10.20;;;2.30;;
29206;SDS011;16247;50.840;4.382;2023-08-31T12:17:29;7.13;;;2.05;;
29206;SDS011;16247;50.840;4.382;2023-08-31T12:20:02;7.88;;;2.17;;
29206;SDS011;16247;50.840;4.382;2023-08-31T12:22:34;3.80;;;1.88;;
29206;SDS011;16247;50.840;4.382;2023-08-31T12:27:32;7.78;;;2.05;;
29206;SDS011;16247;50.840;4.382;2023-08-31T12:29:58;9.75;;;2.58;;
29206;SDS011;16247;50.840;4.382;2023-08-31T12:32:24;9.73;;;2.15;;
29206;SDS011;16247;50.840;4.382;2023-08-31T12:34:49;9.70;;;2.22;;
29206;SDS011;16247;50.840;4.382;2023-08-31T12:37:15;8.45;;;2.40;;
29206;SDS011;16247;50.840;4.382;2023-08-31T12:45:56;9.38;;;1.98;;
29206;SDS011;16247;50.840;4.382;2023-08-31T12:48:23;9.60;;;1.88;;
29206;SDS011;16247;50.840;4.382;2023-08-31T12:50:49;2.78;;;1.48;;
29206;SDS011;16247;50.840;4.382;2023-08-31T12:53:15;4.00;;;2.00;;
29206;SDS011;16247;50.840;4.382;2023-08-31T12:55:42;8.25;;;2.00;;
29206;SDS011;16247;50.840;4.382;2023-08-31T12:58:07;4.38;;;1.45;;
29206;SDS011;16247;50.840;4.382;2023-08-31T13:00:33;2.58;;;1.45;;
29206;SDS011;16247;50.840;4.382;2023-08-31T13:02:59;4.45;;;1.42;;
29206;SDS011;16247;50.840;4.382;2023-08-31T13:05:27;6.15;;;1.80;;
29206;SDS011;16247;50.840;4.382;2023-08-31T13:07:54;3.78;;;0.98;;
29206;SDS011;16247;50.840;4.382;2023-08-31T13:10:20;6.88;;;1.63;;
29206;SDS011;16247;50.840;4.382;2023-08-31T13:12:45;4.40;;;2.17;;
29206;SDS011;16247;50.840;4.382;2023-08-31T13:15:11;7.53;;;1.75;;
29206;SDS011;16247;50.840;4.382;2023-08-31T13:17:38;4.88;;;1.77;;
29206;SDS011;16247;50.840;4.382;2023-08-31T13:20:06;4.93;;;2.03;;
29206;SDS011;16247;50.840;4.382;2023-08-31T13:22:36;6.88;;;2.40;;
29206;SDS011;16247;50.840;4.382;2023-08-31T13:27:32;10.40;;;2.42;;
29206;SDS011;16247;50.840;4.382;2023-08-31T13:29:59;6.75;;;1.75;;
29206;SDS011;16247;50.840;4.382;2023-08-31T13:32:26;7.45;;;2.10;;
29206;SDS011;16247;50.840;4.382;2023-08-31T13:34:52;6.32;;;2.38;;
29206;SDS011;16247;50.840;4.382;2023-08-31T13:37:23;5.72;;;1.73;;
29206;SDS011;16247;50.840;4.382;2023-08-31T13:39:50;6.15;;;2.10;;
29206;SDS011;16247;50.840;4.382;2023-08-31T13:42:17;6.15;;;1.73;;
29206;SDS011;16247;50.840;4.382;2023-08-31T13:44:46;6.45;;;1.85;;
29206;SDS011;16247;50.840;4.382;2023-08-31T13:47:14;6.27;;;2.10;;
29206;SDS011;16247;50.840;4.382;2023-08-31T13:49:41;6.07;;;1.60;;
29206;SDS011;16247;50.840;4.382;2023-08-31T13:52:08;4.90;;;2.10;;
29206;SDS011;16247;50.840;4.382;2023-08-31T13:54:35;3.92;;;1.60;;
29206;SDS011;16247;50.840;4.382;2023-08-31T13:57:02;5.68;;;1.83;;
29206;SDS011;16247;50.840;4.382;2023-08-31T13:59:31;4.72;;;2.25;;
29206;SDS011;16247;50.840;4.382;2023-08-31T14:01:58;9.63;;;2.63;;
29206;SDS011;16247;50.840;4.382;2023-08-31T14:04:31;6.68;;;2.28;;
29206;SDS011;16247;50.840;4.382;2023-08-31T14:13:18;9.57;;;2.45;;
29206;SDS011;16247;50.840;4.382;2023-08-31T14:15:52;8.88;;;2.90;;
29206;SDS011;16247;50.840;4.382;2023-08-31T14:18:19;7.50;;;1.92;;
29206;SDS011;16247;50.840;4.382;2023-08-31T14:20:48;9.65;;;3.58;;
29206;SDS011;16247;50.840;4.382;2023-08-31T14:23:13;9.48;;;3.45;;
29206;SDS011;16247;50.840;4.382;2023-08-31T14:25:39;7.95;;;2.67;;
29206;SDS011;16247;50.840;4.382;2023-08-31T14:28:07;7.05;;;2.33;;
29206;SDS011;16247;50.840;4.382;2023-08-31T14:30:37;6.65;;;2.20;;
29206;SDS011;16247;50.840;4.382;2023-08-31T14:33:03;8.32;;;2.35;;
29206;SDS011;16247;50.840;4.382;2023-08-31T14:35:35;7.88;;;2.28;;
29206;SDS011;16247;50.840;4.382;2023-08-31T14:38:03;9.85;;;3.10;;
29206;SDS011;16247;50.840;4.382;2023-08-31T14:40:29;8.98;;;2.40;;
29206;SDS011;16247;50.840;4.382;2023-08-31T14:42:57;6.22;;;2.50;;
29206;SDS011;16247;50.840;4.382;2023-08-31T14:45:26;9.98;;;2.95;;
29206;SDS011;16247;50.840;4.382;2023-08-31T14:48:15;12.43;;;2.92;;
29206;SDS011;16247;50.840;4.382;2023-08-31T14:50:58;9.15;;;2.25;;
29206;SDS011;16247;50.840;4.382;2023-08-31T14:53:26;8.52;;;2.92;;
29206;SDS011;16247;50.840;4.382;2023-08-31T14:55:53;9.73;;;3.08;;
29206;SDS011;16247;50.840;4.382;2023-08-31T14:58:34;9.20;;;2.85;;
29206;SDS011;16247;50.840;4.382;2023-08-31T15:01:27;6.35;;;2.78;;
29206;SDS011;16247;50.840;4.382;2023-08-31T15:07:18;6.43;;;3.00;;
29206;SDS011;16247;50.840;4.382;2023-08-31T15:12:21;7.70;;;2.17;;
29206;SDS011;16247;50.840;4.382;2023-08-31T15:14:52;9.65;;;2.50;;
29206;SDS011;16247;50.840;4.382;2023-08-31T15:17:17;8.10;;;2.70;;
29206;SDS011;16247;50.840;4.382;2023-08-31T15:19:44;12.75;;;2.60;;
29206;SDS011;16247;50.840;4.382;2023-08-31T15:22:11;11.73;;;2.77;;
29206;SDS011;16247;50.840;4.382;2023-08-31T15:24:37;6.75;;;2.35;;
29206;SDS011;16247;50.840;4.382;2023-08-31T15:27:14;13.45;;;2.55;;
29206;SDS011;16247;50.840;4.382;2023-08-31T15:29:44;12.88;;;3.20;;
29206;SDS011;16247;50.840;4.382;2023-08-31T15:32:12;9.77;;;2.22;;
29206;SDS011;16247;50.840;4.382;2023-08-31T15:34:41;13.15;;;2.45;;
29206;SDS011;16247;50.840;4.382;2023-08-31T15:37:10;11.30;;;2.80;;
29206;SDS011;16247;50.840;4.382;2023-08-31T15:39:38;7.63;;;2.55;;
29206;SDS011;16247;50.840;4.382;2023-08-31T15:42:04;12.20;;;3.53;;
29206;SDS011;16247;50.840;4.382;2023-08-31T15:44:31;7.80;;;2.67;;
29206;SDS011;16247;50.840;4.382;2023-08-31T15:46:58;7.38;;;2.58;;
29206;SDS011;16247;50.840;4.382;2023-08-31T15:49:34;10.15;;;3.05;;
29206;SDS011;16247;50.840;4.382;2023-08-31T15:52:02;7.72;;;2.33;;
29206;SDS011;16247;50.840;4.382;2023-08-31T15:54:30;8.43;;;2.57;;
29206;SDS011;16247;50.840;4.382;2023-08-31T15:59:45;8.15;;;3.10;;
29206;SDS011;16247;50.840;4.382;2023-08-31T16:02:18;6.63;;;2.50;;
29206;SDS011;16247;50.840;4.382;2023-08-31T16:07:47;13.18;;;3.08;;
29206;SDS011;16247;50.840;4.382;2023-08-31T16:10:13;6.25;;;2.80;;
29206;SDS011;16247;50.840;4.382;2023-08-31T16:12:43;7.07;;;2.58;;
29206;SDS011;16247;50.840;4.382;2023-08-31T16:15:15;10.88;;;2.72;;
29206;SDS011;16247;50.840;4.382;2023-08-31T16:17:43;6.80;;;2.60;;
29206;SDS011;16247;50.840;4.382;2023-08-31T16:20:11;9.35;;;3.03;;
29206;SDS011;16247;50.840;4.382;2023-08-31T16:22:39;10.13;;;2.40;;
29206;SDS011;16247;50.840;4.382;2023-08-31T16:25:07;8.07;;;2.90;;
29206;SDS011;16247;50.840;4.382;2023-08-31T16:27:36;9.05;;;2.70;;
29206;SDS011;16247;50.840;4.382;2023-08-31T16:32:35;11.00;;;3.42;;
29206;SDS011;16247;50.840;4.382;2023-08-31T16:35:01;11.27;;;3.00;;
29206;SDS011;16247;50.840;4.382;2023-08-31T16:37:32;8.57;;;3.42;;
29206;SDS011;16247;50.840;4.382;2023-08-31T16:40:01;9.38;;;3.03;;
29206;SDS011;16247;50.840;4.382;2023-08-31T16:42:29;10.40;;;2.58;;
29206;SDS011;16247;50.840;4.382;2023-08-31T16:44:55;12.38;;;3.20;;
29206;SDS011;16247;50.840;4.382;2023-08-31T16:47:21;8.00;;;2.92;;
29206;SDS011;16247;50.840;4.382;2023-08-31T16:49:46;13.48;;;4.80;;
29206;SDS011;16247;50.840;4.382;2023-08-31T16:52:13;14.25;;;3.70;;
29206;SDS011;16247;50.840;4.382;2023-08-31T16:54:40;12.93;;;3.47;;
29206;SDS011;16247;50.840;4.382;2023-08-31T16:59:34;13.52;;;3.83;;
29206;SDS011;16247;50.840;4.382;2023-08-31T17:02:00;13.00;;;3.85;;
29206;SDS011;16247;50.840;4.382;2023-08-31T17:04:27;11.25;;;3.22;;
29206;SDS011;16247;50.840;4.382;2023-08-31T17:06:53;9.48;;;3.20;;
29206;SDS011;16247;50.840;4.382;2023-08-31T17:09:20;9.95;;;4.18;;
29206;SDS011;16247;50.840;4.382;2023-08-31T17:11:46;10.95;;;4.32;;
29206;SDS011;16247;50.840;4.382;2023-08-31T17:14:13;7.45;;;3.45;;
29206;SDS011;16247;50.840;4.382;2023-08-31T17:16:40;11.30;;;3.30;;
29206;SDS011;16247;50.840;4.382;2023-08-31T17:19:10;13.43;;;3.72;;
29206;SDS011;16247;50.840;4.382;2023-08-31T17:24:54;9.15;;;3.58;;
29206;SDS011;16247;50.840;4.382;2023-08-31T17:27:44;9.77;;;2.88;;
29206;SDS011;16247;50.840;4.382;2023-08-31T17:35:17;14.43;;;3.53;;
29206;SDS011;16247;50.840;4.382;2023-08-31T17:37:43;9.07;;;3.33;;
29206;SDS011;16247;50.840;4.382;2023-08-31T17:40:09;10.07;;;2.92;;
29206;SDS011;16247;50.840;4.382;2023-08-31T17:42:38;13.25;;;3.63;;
29206;SDS011;16247;50.840;4.382;2023-08-31T17:45:16;10.15;;;3.50;;
29206;SDS011;16247;50.840;4.382;2023-08-31T17:47:41;11.57;;;3.35;;
29206;SDS011;16247;50.840;4.382;2023-08-31T17:50:07;8.27;;;3.00;;
29206;SDS011;16247;50.840;4.382;2023-08-31T17:52:33;9.60;;;3.67;;
29206;SDS011;16247;50.840;4.382;2023-08-31T17:54:59;13.18;;;3.67;;
29206;SDS011;16247;50.840;4.382;2023-08-31T17:57:29;9.30;;;3.53;;
29206;SDS011;16247;50.840;4.382;2023-08-31T17:59:55;10.05;;;3.33;;
29206;SDS011;16247;50.840;4.382;2023-08-31T18:02:25;10.65;;;3.70;;
29206;SDS011;16247;50.840;4.382;2023-08-31T18:04:52;12.18;;;3.40;;
29206;SDS011;16247;50.840;4.382;2023-08-31T18:07:19;11.50;;;4.47;;
29206;SDS011;16247;50.840;4.382;2023-08-31T18:09:45;9.18;;;3.83;;
29206;SDS011;16247;50.840;4.382;2023-08-31T18:12:13;10.02;;;4.55;;
29206;SDS011;16247;50.840;4.382;2023-08-31T18:14:39;15.32;;;3.88;;
29206;SDS011;16247;50.840;4.382;2023-08-31T18:17:06;10.30;;;4.43;;
29206;SDS011;16247;50.840;4.382;2023-08-31T18:19:34;13.80;;;4.28;;
29206;SDS011;16247;50.840;4.382;2023-08-31T18:22:01;10.88;;;3.88;;
29206;SDS011;16247;50.840;4.382;2023-08-31T18:24:29;14.60;;;5.45;;
29206;SDS011;16247;50.840;4.382;2023-08-31T18:26:54;8.57;;;4.88;;
29206;SDS011;16247;50.840;4.382;2023-08-31T18:29:20;8.60;;;4.80;;
29206;SDS011;16247;50.840;4.382;2023-08-31T18:34:17;10.05;;;5.05;;
29206;SDS011;16247;50.840;4.382;2023-08-31T18:39:10;12.95;;;4.88;;
29206;SDS011;16247;50.840;4.382;2023-08-31T18:41:39;14.25;;;6.00;;
29206;SDS011;16247;50.840;4.382;2023-08-31T18:44:04;11.50;;;4.90;;
29206;SDS011;16247;50.840;4.382;2023-08-31T18:46:31;11.05;;;4.13;;
29206;SDS011;16247;50.840;4.382;2023-08-31T18:48:58;12.20;;;3.60;;
29206;SDS011;16247;50.840;4.382;2023-08-31T18:51:31;9.13;;;5.13;;
29206;SDS011;16247;50.840;4.382;2023-08-31T18:53:59;9.77;;;4.20;;
29206;SDS011;16247;50.840;4.382;2023-08-31T18:56:29;16.73;;;5.00;;
29206;SDS011;16247;50.840;4.382;2023-08-31T19:01:51;10.88;;;3.40;;
29206;SDS011;16247;50.840;4.382;2023-08-31T19:07:31;10.32;;;4.10;;
29206;SDS011;16247;50.840;4.382;2023-08-31T19:13:19;11.60;;;4.80;;
29206;SDS011;16247;50.840;4.382;2023-08-31T19:16:02;8.77;;;4.13;;
29206;SDS011;16247;50.840;4.382;2023-08-31T19:18:41;7.63;;;3.45;;
29206;SDS011;16247;50.840;4.382;2023-08-31T19:24:32;11.07;;;4.45;;
29206;SDS011;16247;50.840;4.382;2023-08-31T19:26:57;14.00;;;5.72;;
29206;SDS011;16247;50.840;4.382;2023-08-31T19:29:25;12.13;;;4.70;;
29206;SDS011;16247;50.840;4.382;2023-08-31T19:31:51;13.02;;;5.43;;
29206;SDS011;16247;50.840;4.382;2023-08-31T19:34:19;13.90;;;5.80;;
29206;SDS011;16247;50.840;4.382;2023-08-31T19:36:45;12.48;;;5.55;;
29206;SDS011;16247;50.840;4.382;2023-08-31T19:39:12;12.57;;;5.68;;
29206;SDS011;16247;50.840;4.382;2023-08-31T19:41:38;8.23;;;4.72;;
29206;SDS011;16247;50.840;4.382;2023-08-31T19:44:04;9.00;;;5.03;;
29206;SDS011;16247;50.840;4.382;2023-08-31T19:46:31;12.40;;;5.43;;
29206;SDS011;16247;50.840;4.382;2023-08-31T19:48:56;10.27;;;4.75;;
29206;SDS011;16247;50.840;4.382;2023-08-31T19:51:22;11.10;;;4.82;;
29206;SDS011;16247;50.840;4.382;2023-08-31T19:53:48;13.10;;;4.25;;
29206;SDS011;16247;50.840;4.382;2023-08-31T19:56:14;10.07;;;4.47;;
29206;SDS011;16247;50.840;4.382;2023-08-31T19:58:39;9.02;;;4.55;;
29206;SDS011;16247;50.840;4.382;2023-08-31T20:01:07;10.88;;;5.07;;
29206;SDS011;16247;50.840;4.382;2023-08-31T20:03:32;13.55;;;5.28;;
29206;SDS011;16247;50.840;4.382;2023-08-31T20:06:03;8.93;;;4.65;;
29206;SDS011;16247;50.840;4.382;2023-08-31T20:08:30;8.60;;;4.97;;
29206;SDS011;16247;50.840;4.382;2023-08-31T20:10:58;13.63;;;4.80;;
29206;SDS011;16247;50.840;4.382;2023-08-31T20:13:43;13.05;;;5.80;;
29206;SDS011;16247;50.840;4.382;2023-08-31T20:16:10;11.98;;;5.82;;
29206;SDS011;16247;50.840;4.382;2023-08-31T20:18:42;14.95;;;5.90;;
29206;SDS011;16247;50.840;4.382;2023-08-31T20:21:09;10.75;;;6.03;;
29206;SDS011;16247;50.840;4.382;2023-08-31T20:23:43;7.53;;;4.63;;
29206;SDS011;16247;50.840;4.382;2023-08-31T20:26:11;8.82;;;5.15;;
29206;SDS011;16247;50.840;4.382;2023-08-31T20:28:37;12.95;;;5.60;;
29206;SDS011;16247;50.840;4.382;2023-08-31T20:31:06;9.63;;;4.60;;
29206;SDS011;16247;50.840;4.382;2023-08-31T20:33:31;10.52;;;4.13;;
29206;SDS011;16247;50.840;4.382;2023-08-31T20:36:04;9.70;;;3.55;;
29206;SDS011;16247;50.840;4.382;2023-08-31T20:38:36;13.05;;;4.18;;
29206;SDS011;16247;50.840;4.382;2023-08-31T20:41:05;8.32;;;3.75;;
29206;SDS011;16247;50.840;4.382;2023-08-31T20:43:55;9.55;;;4.20;;
29206;SDS011;16247;50.840;4.382;2023-08-31T20:46:25;8.77;;;3.92;;
29206;SDS011;16247;50.840;4.382;2023-08-31T20:48:54;7.03;;;4.10;;
29206;SDS011;16247;50.840;4.382;2023-08-31T20:51:22;10.20;;;4.32;;
29206;SDS011;16247;50.840;4.382;2023-08-31T20:53:47;8.90;;;4.15;;
29206;SDS011;16247;50.840;4.382;2023-08-31T20:56:18;10.00;;;4.60;;
29206;SDS011;16247;50.840;4.382;2023-08-31T20:58:49;9.95;;;4.25;;
29206;SDS011;16247;50.840;4.382;2023-08-31T21:01:15;7.65;;;4.20;;
29206;SDS011;16247;50.840;4.382;2023-08-31T21:03:42;11.15;;;4.13;;
29206;SDS011;16247;50.840;4.382;2023-08-31T21:06:10;8.48;;;4.25;;
29206;SDS011;16247;50.840;4.382;2023-08-31T21:08:37;6.47;;;3.72;;
29206;SDS011;16247;50.840;4.382;2023-08-31T21:11:05;9.52;;;4.13;;
29206;SDS011;16247;50.840;4.382;2023-08-31T21:13:30;10.60;;;4.57;;
29206;SDS011;16247;50.840;4.382;2023-08-31T21:16:02;8.20;;;4.22;;
29206;SDS011;16247;50.840;4.382;2023-08-31T21:18:30;7.25;;;4.03;;
29206;SDS011;16247;50.840;4.382;2023-08-31T21:20:59;10.77;;;4.10;;
29206;SDS011;16247;50.840;4.382;2023-08-31T21:23:26;9.88;;;4.10;;
29206;SDS011;16247;50.840;4.382;2023-08-31T21:25:54;8.65;;;3.50;;
29206;SDS011;16247;50.840;4.382;2023-08-31T21:28:41;8.75;;;4.32;;
29206;SDS011;16247;50.840;4.382;2023-08-31T21:31:22;8.25;;;3.63;;
29206;SDS011;16247;50.840;4.382;2023-08-31T21:33:48;10.10;;;4.00;;
29206;SDS011;16247;50.840;4.382;2023-08-31T21:36:15;10.70;;;3.53;;
29206;SDS011;16247;50.840;4.382;2023-08-31T21:38:45;6.50;;;3.20;;
29206;SDS011;16247;50.840;4.382;2023-08-31T21:41:13;8.00;;;4.00;;
29206;SDS011;16247;50.840;4.382;2023-08-31T21:43:39;8.90;;;4.40;;
29206;SDS011;16247;50.840;4.382;2023-08-31T21:46:06;10.90;;;3.70;;
29206;SDS011;16247;50.840;4.382;2023-08-31T21:48:34;10.30;;;4.03;;
29206;SDS011;16247;50.840;4.382;2023-08-31T21:51:00;6.85;;;2.95;;
29206;SDS011;16247;50.840;4.382;2023-08-31T21:53:27;8.45;;;3.92;;
29206;SDS011;16247;50.840;4.382;2023-08-31T21:55:52;9.38;;;3.90;;
29206;SDS011;16247;50.840;4.382;2023-08-31T21:58:20;4.72;;;3.15;;
29206;SDS011;16247;50.840;4.382;2023-08-31T22:00:47;7.38;;;3.28;;